AAL2304 KDCA-KORD
Flight info
| Callsign | AAL2304 |
|---|---|
| Flight time | 1h 36m |
| Altitude | 28000 |
| Route | WYNGS5 RAMAY Q72 HACKS J149 ROD WATSN4 |
| Aircraft | A319/M-SDE3FGHIRWY/LB1 |
Departure
| Time | 2026-05-05 23:33 |
|---|---|
| Airport | Ronald Reagan Washington National Airport (KDCA) |
Arrival
| Time | 2026-05-06 01:09 |
|---|---|
| Airport | Chicago O'Hare International Airport (KORD) |
| Time | Latitude | Longitude | Altitude | Speed | Heading |
|---|---|---|---|---|---|
| 2026-05-05 22:54 | 38.85453 | -77.04089 | 25 ft | 0 kts | 239° |
| 2026-05-05 23:25 | 38.85454 | -77.04086 | 24 ft | 2 kts | 239° |
| 2026-05-05 23:25 | 38.85467 | -77.04057 | 23 ft | 4 kts | 243° |
| 2026-05-05 23:26 | 38.85477 | -77.04026 | 23 ft | 4 kts | 271° |
| 2026-05-05 23:26 | 38.85471 | -77.04009 | 26 ft | 1 kts | 355° |
| 2026-05-05 23:26 | 38.85467 | -77.04008 | 26 ft | 0 kts | 355° |
| 2026-05-05 23:29 | 38.85470 | -77.04008 | 27 ft | 2 kts | 355° |
| 2026-05-05 23:29 | 38.85488 | -77.04010 | 24 ft | 3 kts | 355° |
| 2026-05-05 23:29 | 38.85509 | -77.04014 | 23 ft | 3 kts | 349° |
| 2026-05-05 23:30 | 38.85572 | -77.04033 | 24 ft | 13 kts | 349° |
| 2026-05-05 23:30 | 38.85653 | -77.04041 | 26 ft | 11 kts | 0° |
| 2026-05-05 23:30 | 38.85709 | -77.03988 | 28 ft | 11 kts | 50° |
| 2026-05-05 23:30 | 38.85781 | -77.03980 | 26 ft | 11 kts | 354° |
| 2026-05-05 23:31 | 38.85864 | -77.03987 | 25 ft | 13 kts | 356° |
| 2026-05-05 23:31 | 38.85953 | -77.03975 | 24 ft | 13 kts | 17° |
| 2026-05-05 23:31 | 38.86048 | -77.03939 | 21 ft | 15 kts | 17° |
| 2026-05-05 23:31 | 38.86063 | -77.03868 | 20 ft | 7 kts | 172° |
| 2026-05-05 23:32 | 38.86051 | -77.03866 | 20 ft | 10 kts | 175° |
| 2026-05-05 23:32 | 38.85735 | -77.03836 | 22 ft | 78 kts | 175° |
| 2026-05-05 23:32 | 38.85023 | -77.03765 | 20 ft | 129 kts | 176° |
| 2026-05-05 23:32 | 38.84072 | -77.03665 | 451 ft | 132 kts | 177° |
| 2026-05-05 23:33 | 38.83174 | -77.03617 | 1038 ft | 129 kts | 183° |
| 2026-05-05 23:33 | 38.82274 | -77.03603 | 1532 ft | 130 kts | 184° |
| 2026-05-05 23:33 | 38.81332 | -77.03592 | 1977 ft | 143 kts | 184° |
| 2026-05-05 23:33 | 38.80263 | -77.03581 | 2270 ft | 164 kts | 183° |
| 2026-05-05 23:34 | 38.79036 | -77.03565 | 2532 ft | 187 kts | 184° |
| 2026-05-05 23:34 | 38.77644 | -77.03542 | 2806 ft | 213 kts | 182° |
| 2026-05-05 23:34 | 38.76088 | -77.03634 | 3192 ft | 234 kts | 197° |
| 2026-05-05 23:34 | 38.74766 | -77.04828 | 3843 ft | 242 kts | 235° |
| 2026-05-05 23:35 | 38.74217 | -77.06886 | 4689 ft | 250 kts | 259° |
| 2026-05-05 23:35 | 38.74116 | -77.09119 | 5578 ft | 254 kts | 266° |
| 2026-05-05 23:35 | 38.74140 | -77.11397 | 6454 ft | 257 kts | 267° |
| 2026-05-05 23:35 | 38.74161 | -77.13692 | 7308 ft | 259 kts | 267° |
| 2026-05-05 23:36 | 38.74135 | -77.16000 | 8160 ft | 260 kts | 266° |
| 2026-05-05 23:36 | 38.74060 | -77.18324 | 9017 ft | 262 kts | 265° |
| 2026-05-05 23:36 | 38.73951 | -77.20663 | 9860 ft | 264 kts | 265° |
| 2026-05-05 23:36 | 38.73881 | -77.23058 | 10377 ft | 279 kts | 272° |
| 2026-05-05 23:37 | 38.74247 | -77.25600 | 10605 ft | 304 kts | 285° |
| 2026-05-05 23:37 | 38.75161 | -77.28113 | 11119 ft | 317 kts | 298° |
| 2026-05-05 23:37 | 38.76330 | -77.30496 | 11820 ft | 321 kts | 297° |
| 2026-05-05 23:37 | 38.77179 | -77.33159 | 12527 ft | 321 kts | 284° |
| 2026-05-05 23:38 | 38.77785 | -77.35886 | 13305 ft | 323 kts | 284° |
| 2026-05-05 23:38 | 38.78399 | -77.38697 | 13852 ft | 334 kts | 283° |
| 2026-05-05 23:38 | 38.79037 | -77.41663 | 14077 ft | 357 kts | 283° |
| 2026-05-05 23:38 | 38.79706 | -77.44778 | 14575 ft | 367 kts | 283° |
| 2026-05-05 23:39 | 38.80393 | -77.47961 | 15219 ft | 373 kts | 283° |
| 2026-05-05 23:39 | 38.81094 | -77.51192 | 15859 ft | 378 kts | 283° |
| 2026-05-05 23:39 | 38.81802 | -77.54466 | 16481 ft | 383 kts | 283° |
| 2026-05-05 23:39 | 38.82515 | -77.57774 | 17086 ft | 387 kts | 283° |
| 2026-05-05 23:40 | 38.83239 | -77.61128 | 17654 ft | 391 kts | 283° |
| 2026-05-05 23:40 | 38.83953 | -77.64427 | 18788 ft | 375 kts | 283° |
| 2026-05-05 23:40 | 38.84640 | -77.67600 | 19779 ft | 366 kts | 283° |
| 2026-05-05 23:40 | 38.85317 | -77.70752 | 20453 ft | 366 kts | 283° |
| 2026-05-05 23:41 | 38.85991 | -77.73907 | 21042 ft | 368 kts | 282° |
| 2026-05-05 23:41 | 38.86666 | -77.77080 | 21589 ft | 370 kts | 282° |
| 2026-05-05 23:41 | 38.87345 | -77.80285 | 22129 ft | 373 kts | 283° |
| 2026-05-05 23:41 | 38.88019 | -77.83463 | 22660 ft | 375 kts | 282° |
| 2026-05-05 23:42 | 38.88707 | -77.86707 | 23167 ft | 378 kts | 282° |
| 2026-05-05 23:42 | 38.89396 | -77.89962 | 23636 ft | 380 kts | 282° |
| 2026-05-05 23:42 | 38.90093 | -77.93242 | 24058 ft | 382 kts | 283° |
| 2026-05-05 23:42 | 38.90791 | -77.96542 | 24394 ft | 386 kts | 283° |
| 2026-05-05 23:43 | 38.91502 | -77.99924 | 24505 ft | 396 kts | 283° |
| 2026-05-05 23:43 | 38.92230 | -78.03372 | 24622 ft | 405 kts | 283° |
| 2026-05-05 23:43 | 38.92978 | -78.06895 | 24743 ft | 413 kts | 283° |
| 2026-05-05 23:43 | 38.93739 | -78.10490 | 24858 ft | 420 kts | 283° |
| 2026-05-05 23:44 | 38.94505 | -78.14141 | 24987 ft | 426 kts | 283° |
| 2026-05-05 23:44 | 38.95276 | -78.17829 | 25207 ft | 429 kts | 283° |
| 2026-05-05 23:44 | 38.95999 | -78.21560 | 25470 ft | 430 kts | 278° |
| 2026-05-05 23:44 | 38.96317 | -78.25374 | 25753 ft | 430 kts | 274° |
| 2026-05-05 23:45 | 38.96561 | -78.29219 | 26056 ft | 431 kts | 274° |
| 2026-05-05 23:45 | 38.96807 | -78.33022 | 26371 ft | 431 kts | 274° |
| 2026-05-05 23:45 | 38.97053 | -78.36786 | 27265 ft | 418 kts | 274° |
| 2026-05-05 23:45 | 38.97296 | -78.40505 | 27656 ft | 418 kts | 274° |
| 2026-05-05 23:46 | 38.97536 | -78.44246 | 27833 ft | 423 kts | 274° |
| 2026-05-05 23:46 | 38.97776 | -78.48038 | 27871 ft | 429 kts | 274° |
| 2026-05-05 23:46 | 38.98015 | -78.51859 | 27870 ft | 435 kts | 274° |
| 2026-05-05 23:46 | 38.98258 | -78.55777 | 27869 ft | 436 kts | 274° |
| 2026-05-05 23:47 | 38.98500 | -78.59662 | 27871 ft | 436 kts | 274° |
| 2026-05-05 23:47 | 38.98740 | -78.63541 | 27869 ft | 436 kts | 274° |
| 2026-05-05 23:47 | 38.98981 | -78.67426 | 27863 ft | 436 kts | 274° |
| 2026-05-05 23:47 | 38.99219 | -78.71302 | 27868 ft | 435 kts | 274° |
| 2026-05-05 23:48 | 38.99458 | -78.75180 | 27872 ft | 435 kts | 274° |
| 2026-05-05 23:48 | 38.99699 | -78.79068 | 27870 ft | 435 kts | 274° |
| 2026-05-05 23:48 | 38.99935 | -78.82910 | 27862 ft | 422 kts | 274° |
| 2026-05-05 23:48 | 39.00160 | -78.86612 | 27872 ft | 411 kts | 274° |
| 2026-05-05 23:49 | 39.00376 | -78.90208 | 27873 ft | 408 kts | 274° |
| 2026-05-05 23:49 | 39.00592 | -78.93851 | 27869 ft | 408 kts | 274° |
| 2026-05-05 23:49 | 39.00806 | -78.97484 | 27864 ft | 407 kts | 274° |
| 2026-05-05 23:49 | 39.01016 | -79.01108 | 27872 ft | 407 kts | 274° |
| 2026-05-05 23:50 | 39.01223 | -79.04691 | 27872 ft | 407 kts | 274° |
| 2026-05-05 23:50 | 39.01434 | -79.08353 | 27880 ft | 407 kts | 274° |
| 2026-05-05 23:50 | 39.01645 | -79.12017 | 27876 ft | 407 kts | 274° |
| 2026-05-05 23:50 | 39.01851 | -79.15650 | 27879 ft | 407 kts | 274° |
| 2026-05-05 23:51 | 39.02061 | -79.19287 | 27884 ft | 407 kts | 274° |
| 2026-05-05 23:51 | 39.02289 | -79.22872 | 27881 ft | 407 kts | 275° |
| 2026-05-05 23:51 | 39.02534 | -79.26543 | 27877 ft | 407 kts | 275° |
| 2026-05-05 23:51 | 39.02776 | -79.30129 | 27878 ft | 407 kts | 275° |
| 2026-05-05 23:52 | 39.03021 | -79.33762 | 27874 ft | 407 kts | 275° |
| 2026-05-05 23:52 | 39.03263 | -79.37389 | 27875 ft | 407 kts | 275° |
| 2026-05-05 23:52 | 39.03501 | -79.41011 | 27875 ft | 407 kts | 275° |
| 2026-05-05 23:52 | 39.03734 | -79.44649 | 27880 ft | 407 kts | 274° |
| 2026-05-05 23:53 | 39.03960 | -79.48271 | 27885 ft | 406 kts | 274° |
| 2026-05-05 23:53 | 39.04187 | -79.51898 | 27891 ft | 406 kts | 274° |
| 2026-05-05 23:53 | 39.04415 | -79.55518 | 27881 ft | 406 kts | 275° |
| 2026-05-05 23:53 | 39.04645 | -79.59147 | 27885 ft | 406 kts | 275° |
| 2026-05-05 23:54 | 39.04873 | -79.62766 | 27889 ft | 406 kts | 274° |
| 2026-05-05 23:54 | 39.05101 | -79.66387 | 27890 ft | 406 kts | 274° |
| 2026-05-05 23:54 | 39.05328 | -79.70007 | 27884 ft | 406 kts | 274° |
| 2026-05-05 23:54 | 39.05554 | -79.73629 | 27886 ft | 406 kts | 274° |
| 2026-05-05 23:55 | 39.05778 | -79.77277 | 27912 ft | 413 kts | 274° |
| 2026-05-05 23:55 | 39.06003 | -79.80999 | 27908 ft | 419 kts | 274° |
| 2026-05-05 23:55 | 39.06227 | -79.84750 | 27918 ft | 421 kts | 274° |
| 2026-05-05 23:55 | 39.06452 | -79.88508 | 27923 ft | 421 kts | 274° |
| 2026-05-05 23:56 | 39.06677 | -79.92266 | 27914 ft | 421 kts | 274° |
| 2026-05-05 23:56 | 39.06901 | -79.96024 | 27914 ft | 419 kts | 274° |
| 2026-05-05 23:56 | 39.07116 | -79.99672 | 27906 ft | 411 kts | 274° |
| 2026-05-05 23:56 | 39.07333 | -80.03363 | 27909 ft | 408 kts | 274° |
| 2026-05-05 23:57 | 39.07544 | -80.06961 | 27902 ft | 408 kts | 274° |
| 2026-05-05 23:57 | 39.07756 | -80.10595 | 27884 ft | 407 kts | 274° |
| 2026-05-05 23:57 | 39.07969 | -80.14233 | 27877 ft | 407 kts | 274° |
| 2026-05-05 23:57 | 39.08182 | -80.17874 | 27883 ft | 407 kts | 274° |
| 2026-05-05 23:58 | 39.08389 | -80.21511 | 27882 ft | 407 kts | 274° |
| 2026-05-05 23:58 | 39.08592 | -80.25144 | 27877 ft | 407 kts | 274° |
| 2026-05-05 23:58 | 39.08799 | -80.28780 | 27873 ft | 407 kts | 274° |
| 2026-05-05 23:58 | 39.09005 | -80.32407 | 27872 ft | 407 kts | 274° |
| 2026-05-05 23:59 | 39.09206 | -80.36041 | 27868 ft | 407 kts | 274° |
| 2026-05-05 23:59 | 39.09401 | -80.39683 | 27867 ft | 407 kts | 274° |
| 2026-05-05 23:59 | 39.09595 | -80.43315 | 27859 ft | 407 kts | 274° |
| 2026-05-05 23:59 | 39.09789 | -80.46951 | 27858 ft | 407 kts | 274° |
| 2026-05-06 00:00 | 39.09981 | -80.50580 | 27860 ft | 407 kts | 274° |
| 2026-05-06 00:00 | 39.10173 | -80.54212 | 27857 ft | 407 kts | 274° |
| 2026-05-06 00:00 | 39.10361 | -80.57844 | 27852 ft | 407 kts | 274° |
| 2026-05-06 00:00 | 39.10551 | -80.61485 | 27852 ft | 406 kts | 274° |
| 2026-05-06 00:01 | 39.10740 | -80.65110 | 27850 ft | 407 kts | 274° |
| 2026-05-06 00:01 | 39.10928 | -80.68743 | 27854 ft | 407 kts | 274° |
| 2026-05-06 00:01 | 39.11113 | -80.72340 | 27848 ft | 407 kts | 274° |
| 2026-05-06 00:01 | 39.11298 | -80.75976 | 27858 ft | 407 kts | 274° |
| 2026-05-06 00:02 | 39.11485 | -80.79651 | 27860 ft | 406 kts | 274° |
| 2026-05-06 00:02 | 39.11669 | -80.83282 | 27864 ft | 406 kts | 274° |
| 2026-05-06 00:02 | 39.11849 | -80.86870 | 27865 ft | 406 kts | 274° |
| 2026-05-06 00:02 | 39.12028 | -80.90496 | 27866 ft | 406 kts | 274° |
| 2026-05-06 00:03 | 39.12206 | -80.94115 | 27866 ft | 405 kts | 274° |
| 2026-05-06 00:03 | 39.12382 | -80.97740 | 27870 ft | 405 kts | 274° |
| 2026-05-06 00:03 | 39.12556 | -81.01359 | 27859 ft | 405 kts | 274° |
| 2026-05-06 00:03 | 39.12730 | -81.04971 | 27865 ft | 404 kts | 274° |
| 2026-05-06 00:04 | 39.13095 | -81.08559 | 27867 ft | 404 kts | 283° |
| 2026-05-06 00:04 | 39.14049 | -81.11962 | 27869 ft | 406 kts | 294° |
| 2026-05-06 00:04 | 39.15369 | -81.15172 | 27882 ft | 406 kts | 296° |
| 2026-05-06 00:04 | 39.16693 | -81.18380 | 27880 ft | 405 kts | 296° |
| 2026-05-06 00:05 | 39.19327 | -81.24806 | 27885 ft | 405 kts | 295° |
| 2026-05-06 00:05 | 39.20640 | -81.28024 | 27889 ft | 404 kts | 295° |
| 2026-05-06 00:05 | 39.21506 | -81.30146 | 27891 ft | 404 kts | 296° |
| 2026-05-06 00:06 | 39.22820 | -81.33356 | 27891 ft | 404 kts | 296° |
| 2026-05-06 00:06 | 39.24129 | -81.36553 | 27893 ft | 404 kts | 296° |
| 2026-05-06 00:06 | 39.25869 | -81.40799 | 27892 ft | 403 kts | 296° |
| 2026-05-06 00:06 | 39.27173 | -81.43999 | 27896 ft | 403 kts | 296° |
| 2026-05-06 00:07 | 39.28472 | -81.47200 | 27898 ft | 402 kts | 296° |
| 2026-05-06 00:07 | 39.29347 | -81.49355 | 27893 ft | 402 kts | 296° |
| 2026-05-06 00:07 | 39.30644 | -81.52559 | 27897 ft | 401 kts | 295° |
| 2026-05-06 00:07 | 39.31939 | -81.55751 | 27899 ft | 401 kts | 296° |
| 2026-05-06 00:08 | 39.33238 | -81.58944 | 27896 ft | 400 kts | 296° |
| 2026-05-06 00:08 | 39.34515 | -81.62080 | 27895 ft | 400 kts | 296° |
| 2026-05-06 00:08 | 39.35810 | -81.65263 | 27892 ft | 400 kts | 296° |
| 2026-05-06 00:08 | 39.37101 | -81.68447 | 27892 ft | 399 kts | 295° |
| 2026-05-06 00:09 | 39.38386 | -81.71625 | 27888 ft | 399 kts | 295° |
| 2026-05-06 00:09 | 39.39667 | -81.74805 | 27883 ft | 399 kts | 295° |
| 2026-05-06 00:09 | 39.40948 | -81.77988 | 27882 ft | 399 kts | 295° |
| 2026-05-06 00:09 | 39.42227 | -81.81168 | 27878 ft | 399 kts | 295° |
| 2026-05-06 00:10 | 39.43506 | -81.84352 | 27875 ft | 398 kts | 295° |
| 2026-05-06 00:10 | 39.44784 | -81.87535 | 27869 ft | 398 kts | 295° |
| 2026-05-06 00:10 | 39.46062 | -81.90721 | 27869 ft | 398 kts | 295° |
| 2026-05-06 00:10 | 39.47339 | -81.93900 | 27869 ft | 398 kts | 295° |
| 2026-05-06 00:11 | 39.48616 | -81.97078 | 27869 ft | 398 kts | 295° |
| 2026-05-06 00:11 | 39.49890 | -82.00260 | 27870 ft | 398 kts | 295° |
| 2026-05-06 00:11 | 39.51159 | -82.03443 | 27867 ft | 398 kts | 295° |
| 2026-05-06 00:11 | 39.52428 | -82.06630 | 27865 ft | 398 kts | 295° |
| 2026-05-06 00:12 | 39.53698 | -82.09815 | 27865 ft | 398 kts | 295° |
| 2026-05-06 00:12 | 39.54971 | -82.13007 | 27862 ft | 398 kts | 295° |
| 2026-05-06 00:12 | 39.56241 | -82.16191 | 27861 ft | 398 kts | 295° |
| 2026-05-06 00:12 | 39.57514 | -82.19390 | 27862 ft | 398 kts | 295° |
| 2026-05-06 00:13 | 39.58781 | -82.22578 | 27861 ft | 398 kts | 295° |
| 2026-05-06 00:13 | 39.60051 | -82.25776 | 27862 ft | 398 kts | 295° |
| 2026-05-06 00:13 | 39.61318 | -82.28977 | 27863 ft | 399 kts | 295° |
| 2026-05-06 00:13 | 39.62583 | -82.32173 | 27863 ft | 399 kts | 295° |
| 2026-05-06 00:14 | 39.63850 | -82.35377 | 27866 ft | 399 kts | 295° |
| 2026-05-06 00:14 | 39.65096 | -82.38535 | 27864 ft | 399 kts | 294° |
| 2026-05-06 00:14 | 39.66361 | -82.41740 | 27867 ft | 399 kts | 295° |
| 2026-05-06 00:14 | 39.67641 | -82.44984 | 27867 ft | 399 kts | 294° |
| 2026-05-06 00:15 | 39.68902 | -82.48193 | 27871 ft | 399 kts | 294° |
| 2026-05-06 00:15 | 39.70150 | -82.51369 | 27873 ft | 399 kts | 294° |
| 2026-05-06 00:15 | 39.71362 | -82.54450 | 27872 ft | 399 kts | 294° |
| 2026-05-06 00:15 | 39.72623 | -82.57666 | 27874 ft | 399 kts | 294° |
| 2026-05-06 00:16 | 39.73883 | -82.60878 | 27874 ft | 399 kts | 294° |
| 2026-05-06 00:16 | 39.75142 | -82.64088 | 27873 ft | 399 kts | 294° |
| 2026-05-06 00:16 | 39.76402 | -82.67300 | 27873 ft | 399 kts | 294° |
| 2026-05-06 00:16 | 39.77661 | -82.70509 | 27873 ft | 398 kts | 294° |
| 2026-05-06 00:17 | 39.78923 | -82.73728 | 27874 ft | 398 kts | 294° |
| 2026-05-06 00:17 | 39.80175 | -82.76931 | 27873 ft | 398 kts | 294° |
| 2026-05-06 00:17 | 39.81431 | -82.80156 | 27875 ft | 398 kts | 294° |
| 2026-05-06 00:17 | 39.82679 | -82.83376 | 27873 ft | 398 kts | 294° |
| 2026-05-06 00:18 | 39.83906 | -82.86548 | 27873 ft | 398 kts | 294° |
| 2026-05-06 00:18 | 39.85165 | -82.89803 | 27874 ft | 398 kts | 294° |
| 2026-05-06 00:18 | 39.86397 | -82.92979 | 27871 ft | 398 kts | 294° |
| 2026-05-06 00:18 | 39.87645 | -82.96195 | 27869 ft | 398 kts | 294° |
| 2026-05-06 00:19 | 39.88892 | -82.99409 | 27870 ft | 398 kts | 294° |
| 2026-05-06 00:19 | 39.90137 | -83.02626 | 27869 ft | 397 kts | 294° |
| 2026-05-06 00:19 | 39.91379 | -83.05836 | 27870 ft | 397 kts | 294° |
| 2026-05-06 00:19 | 39.92625 | -83.09059 | 27867 ft | 397 kts | 294° |
| 2026-05-06 00:20 | 39.93865 | -83.12275 | 27867 ft | 397 kts | 293° |
| 2026-05-06 00:20 | 39.95105 | -83.15500 | 27869 ft | 398 kts | 293° |
| 2026-05-06 00:20 | 39.96344 | -83.18723 | 27866 ft | 398 kts | 293° |
| 2026-05-06 00:20 | 39.97578 | -83.21940 | 27864 ft | 398 kts | 293° |
| 2026-05-06 00:21 | 39.98816 | -83.25167 | 27862 ft | 398 kts | 293° |
| 2026-05-06 00:21 | 40.00056 | -83.28396 | 27857 ft | 397 kts | 293° |
| 2026-05-06 00:21 | 40.01290 | -83.31618 | 27859 ft | 397 kts | 293° |
| 2026-05-06 00:21 | 40.02522 | -83.34840 | 27858 ft | 397 kts | 293° |
| 2026-05-06 00:22 | 40.03759 | -83.38073 | 27854 ft | 397 kts | 293° |
| 2026-05-06 00:22 | 40.04995 | -83.41304 | 27850 ft | 397 kts | 293° |
| 2026-05-06 00:22 | 40.06227 | -83.44531 | 27850 ft | 397 kts | 293° |
| 2026-05-06 00:22 | 40.07456 | -83.47759 | 27848 ft | 397 kts | 293° |
| 2026-05-06 00:23 | 40.08683 | -83.50983 | 27845 ft | 397 kts | 293° |
| 2026-05-06 00:23 | 40.09915 | -83.54219 | 27847 ft | 397 kts | 293° |
| 2026-05-06 00:23 | 40.11143 | -83.57449 | 27845 ft | 397 kts | 293° |
| 2026-05-06 00:23 | 40.12374 | -83.60690 | 27836 ft | 397 kts | 293° |
| 2026-05-06 00:24 | 40.13598 | -83.63920 | 27839 ft | 397 kts | 293° |
| 2026-05-06 00:24 | 40.14807 | -83.67113 | 27850 ft | 397 kts | 292° |
| 2026-05-06 00:24 | 40.16048 | -83.70395 | 27851 ft | 397 kts | 292° |
| 2026-05-06 00:24 | 40.17254 | -83.73588 | 27856 ft | 397 kts | 292° |
| 2026-05-06 00:25 | 40.18473 | -83.76825 | 27854 ft | 397 kts | 292° |
| 2026-05-06 00:25 | 40.19693 | -83.80069 | 27856 ft | 397 kts | 292° |
| 2026-05-06 00:25 | 40.20912 | -83.83315 | 27858 ft | 397 kts | 292° |
| 2026-05-06 00:25 | 40.22129 | -83.86555 | 27862 ft | 397 kts | 292° |
| 2026-05-06 00:26 | 40.23349 | -83.89796 | 27863 ft | 397 kts | 292° |
| 2026-05-06 00:26 | 40.24576 | -83.93051 | 27865 ft | 397 kts | 292° |
| 2026-05-06 00:26 | 40.25793 | -83.96293 | 27863 ft | 397 kts | 292° |
| 2026-05-06 00:26 | 40.27006 | -83.99544 | 27865 ft | 397 kts | 292° |
| 2026-05-06 00:27 | 40.28220 | -84.02790 | 27865 ft | 397 kts | 293° |
| 2026-05-06 00:27 | 40.29723 | -84.05854 | 27866 ft | 403 kts | 303° |
| 2026-05-06 00:27 | 40.31485 | -84.08727 | 27873 ft | 404 kts | 304° |
| 2026-05-06 00:27 | 40.33254 | -84.11599 | 27873 ft | 404 kts | 304° |
| 2026-05-06 00:28 | 40.35019 | -84.14468 | 27876 ft | 404 kts | 303° |
| 2026-05-06 00:28 | 40.36785 | -84.17343 | 27874 ft | 404 kts | 303° |
| 2026-05-06 00:28 | 40.38548 | -84.20220 | 27873 ft | 404 kts | 303° |
| 2026-05-06 00:28 | 40.40311 | -84.23101 | 27876 ft | 405 kts | 303° |
| 2026-05-06 00:29 | 40.42069 | -84.25979 | 27875 ft | 405 kts | 303° |
| 2026-05-06 00:29 | 40.43827 | -84.28859 | 27872 ft | 405 kts | 303° |
| 2026-05-06 00:29 | 40.45585 | -84.31745 | 27877 ft | 405 kts | 303° |
| 2026-05-06 00:29 | 40.47301 | -84.34563 | 27870 ft | 405 kts | 303° |
| 2026-05-06 00:30 | 40.49079 | -84.37488 | 27866 ft | 405 kts | 303° |
| 2026-05-06 00:30 | 40.50836 | -84.40379 | 27867 ft | 405 kts | 303° |
| 2026-05-06 00:30 | 40.52595 | -84.43271 | 27876 ft | 405 kts | 303° |
| 2026-05-06 00:30 | 40.54352 | -84.46161 | 27870 ft | 405 kts | 303° |
| 2026-05-06 00:31 | 40.56113 | -84.49059 | 27881 ft | 405 kts | 303° |
| 2026-05-06 00:31 | 40.57869 | -84.51953 | 27887 ft | 405 kts | 303° |
| 2026-05-06 00:31 | 40.59628 | -84.54858 | 27889 ft | 405 kts | 303° |
| 2026-05-06 00:31 | 40.61379 | -84.57759 | 27897 ft | 405 kts | 303° |
| 2026-05-06 00:32 | 40.63133 | -84.60669 | 27901 ft | 405 kts | 303° |
| 2026-05-06 00:32 | 40.64886 | -84.63579 | 27901 ft | 405 kts | 303° |
| 2026-05-06 00:32 | 40.66634 | -84.66479 | 27904 ft | 405 kts | 303° |
| 2026-05-06 00:32 | 40.68384 | -84.69383 | 27906 ft | 404 kts | 303° |
| 2026-05-06 00:33 | 40.70134 | -84.72288 | 27902 ft | 404 kts | 303° |
| 2026-05-06 00:33 | 40.71878 | -84.75184 | 27914 ft | 404 kts | 303° |
| 2026-05-06 00:33 | 40.73624 | -84.78087 | 27905 ft | 403 kts | 302° |
| 2026-05-06 00:33 | 40.75363 | -84.80989 | 27913 ft | 403 kts | 302° |
| 2026-05-06 00:34 | 40.77101 | -84.83896 | 27898 ft | 403 kts | 302° |
| 2026-05-06 00:34 | 40.78841 | -84.86805 | 27899 ft | 403 kts | 302° |
| 2026-05-06 00:34 | 40.80578 | -84.89704 | 27904 ft | 403 kts | 302° |
| 2026-05-06 00:34 | 40.82317 | -84.92611 | 27902 ft | 403 kts | 302° |
| 2026-05-06 00:35 | 40.84052 | -84.95514 | 27908 ft | 403 kts | 302° |
| 2026-05-06 00:35 | 40.85781 | -84.98409 | 27907 ft | 403 kts | 302° |
| 2026-05-06 00:35 | 40.87516 | -85.01318 | 27909 ft | 403 kts | 302° |
| 2026-05-06 00:35 | 40.89227 | -85.04191 | 27910 ft | 403 kts | 302° |
| 2026-05-06 00:36 | 40.90964 | -85.07106 | 27908 ft | 403 kts | 302° |
| 2026-05-06 00:36 | 40.92695 | -85.10012 | 27910 ft | 402 kts | 302° |
| 2026-05-06 00:36 | 40.94431 | -85.12931 | 27908 ft | 402 kts | 302° |
| 2026-05-06 00:36 | 40.96155 | -85.15836 | 27906 ft | 402 kts | 302° |
| 2026-05-06 00:37 | 40.97883 | -85.18748 | 27905 ft | 402 kts | 302° |
| 2026-05-06 00:37 | 40.99683 | -85.21596 | 27903 ft | 404 kts | 304° |
| 2026-05-06 00:37 | 41.01564 | -85.24370 | 27901 ft | 405 kts | 306° |
| 2026-05-06 00:37 | 41.03492 | -85.27099 | 27896 ft | 406 kts | 307° |
| 2026-05-06 00:38 | 41.05435 | -85.29814 | 27893 ft | 406 kts | 307° |
| 2026-05-06 00:38 | 41.07368 | -85.32538 | 27895 ft | 405 kts | 306° |
| 2026-05-06 00:38 | 41.09283 | -85.35272 | 27895 ft | 405 kts | 306° |
| 2026-05-06 00:38 | 41.11190 | -85.38024 | 27891 ft | 405 kts | 306° |
| 2026-05-06 00:39 | 41.13083 | -85.40785 | 27894 ft | 405 kts | 305° |
| 2026-05-06 00:39 | 41.14975 | -85.43551 | 27894 ft | 405 kts | 305° |
| 2026-05-06 00:39 | 41.16800 | -85.46326 | 27894 ft | 400 kts | 300° |
| 2026-05-06 00:39 | 41.18191 | -85.49466 | 27894 ft | 391 kts | 288° |
| 2026-05-06 00:40 | 41.19072 | -85.52843 | 27892 ft | 388 kts | 283° |
| 2026-05-06 00:40 | 41.19886 | -85.56262 | 27892 ft | 388 kts | 283° |
| 2026-05-06 00:40 | 41.20704 | -85.59674 | 27890 ft | 388 kts | 283° |
| 2026-05-06 00:40 | 41.21526 | -85.63098 | 27890 ft | 388 kts | 283° |
| 2026-05-06 00:41 | 41.22345 | -85.66503 | 27890 ft | 388 kts | 283° |
| 2026-05-06 00:41 | 41.23163 | -85.69914 | 27888 ft | 388 kts | 283° |
| 2026-05-06 00:41 | 41.23978 | -85.73323 | 27888 ft | 387 kts | 283° |
| 2026-05-06 00:41 | 41.24793 | -85.76740 | 27889 ft | 387 kts | 283° |
| 2026-05-06 00:42 | 41.25606 | -85.80155 | 27885 ft | 387 kts | 283° |
| 2026-05-06 00:42 | 41.26422 | -85.83559 | 27554 ft | 383 kts | 283° |
| 2026-05-06 00:42 | 41.27003 | -85.86926 | 27347 ft | 364 kts | 273° |
| 2026-05-06 00:42 | 41.27255 | -85.90158 | 27129 ft | 351 kts | 273° |
| 2026-05-06 00:43 | 41.27516 | -85.93397 | 26518 ft | 345 kts | 273° |
| 2026-05-06 00:43 | 41.27772 | -85.96551 | 25719 ft | 340 kts | 273° |
| 2026-05-06 00:43 | 41.28022 | -85.99590 | 25364 ft | 332 kts | 273° |
| 2026-05-06 00:43 | 41.28270 | -86.02622 | 25009 ft | 328 kts | 272° |
| 2026-05-06 00:44 | 41.28540 | -86.05596 | 24870 ft | 320 kts | 274° |
| 2026-05-06 00:44 | 41.28867 | -86.08518 | 24400 ft | 322 kts | 275° |
| 2026-05-06 00:44 | 41.29229 | -86.11474 | 23849 ft | 320 kts | 275° |
| 2026-05-06 00:44 | 41.29596 | -86.14372 | 23538 ft | 317 kts | 275° |
| 2026-05-06 00:45 | 41.29959 | -86.17254 | 23136 ft | 314 kts | 275° |
| 2026-05-06 00:45 | 41.30303 | -86.20111 | 22779 ft | 313 kts | 275° |
| 2026-05-06 00:45 | 41.30643 | -86.22959 | 22422 ft | 312 kts | 274° |
| 2026-05-06 00:45 | 41.30977 | -86.25803 | 22067 ft | 311 kts | 274° |
| 2026-05-06 00:46 | 41.31306 | -86.28647 | 21711 ft | 310 kts | 274° |
| 2026-05-06 00:46 | 41.31633 | -86.31480 | 21359 ft | 309 kts | 274° |
| 2026-05-06 00:46 | 41.31961 | -86.34299 | 21003 ft | 308 kts | 274° |
| 2026-05-06 00:46 | 41.32292 | -86.37111 | 20651 ft | 308 kts | 274° |
| 2026-05-06 00:47 | 41.32617 | -86.39884 | 20304 ft | 307 kts | 274° |
| 2026-05-06 00:47 | 41.32945 | -86.42723 | 19950 ft | 306 kts | 274° |
| 2026-05-06 00:47 | 41.33256 | -86.45491 | 19598 ft | 306 kts | 274° |
| 2026-05-06 00:47 | 41.33570 | -86.48287 | 19246 ft | 305 kts | 274° |
| 2026-05-06 00:48 | 41.33886 | -86.51079 | 18899 ft | 305 kts | 274° |
| 2026-05-06 00:48 | 41.34268 | -86.53860 | 18542 ft | 308 kts | 281° |
| 2026-05-06 00:48 | 41.35105 | -86.56513 | 18190 ft | 314 kts | 291° |
| 2026-05-06 00:48 | 41.36110 | -86.59093 | 17910 ft | 314 kts | 291° |
| 2026-05-06 00:49 | 41.37107 | -86.61673 | 17560 ft | 313 kts | 291° |
| 2026-05-06 00:49 | 41.38092 | -86.64240 | 17203 ft | 311 kts | 291° |
| 2026-05-06 00:49 | 41.39093 | -86.66785 | 16848 ft | 311 kts | 296° |
| 2026-05-06 00:49 | 41.40464 | -86.69046 | 16484 ft | 318 kts | 310° |
| 2026-05-06 00:50 | 41.42279 | -86.70769 | 16111 ft | 326 kts | 326° |
| 2026-05-06 00:50 | 41.44313 | -86.72097 | 15741 ft | 325 kts | 327° |
| 2026-05-06 00:50 | 41.46339 | -86.73413 | 15365 ft | 323 kts | 327° |
| 2026-05-06 00:50 | 41.48357 | -86.74731 | 14990 ft | 321 kts | 327° |
| 2026-05-06 00:51 | 41.50355 | -86.76037 | 14623 ft | 319 kts | 327° |
| 2026-05-06 00:51 | 41.52358 | -86.77324 | 14255 ft | 319 kts | 330° |
| 2026-05-06 00:51 | 41.54503 | -86.78178 | 13886 ft | 326 kts | 344° |
| 2026-05-06 00:51 | 41.56751 | -86.78453 | 13492 ft | 328 kts | 349° |
| 2026-05-06 00:52 | 41.59018 | -86.78669 | 13105 ft | 325 kts | 349° |
| 2026-05-06 00:52 | 41.61265 | -86.78885 | 12730 ft | 322 kts | 349° |
| 2026-05-06 00:52 | 41.63494 | -86.79102 | 12363 ft | 319 kts | 349° |
| 2026-05-06 00:52 | 41.65672 | -86.79491 | 11917 ft | 311 kts | 340° |
| 2026-05-06 00:53 | 41.67450 | -86.80900 | 11860 ft | 293 kts | 316° |
| 2026-05-06 00:53 | 41.69231 | -86.82282 | 11860 ft | 306 kts | 338° |
| 2026-05-06 00:53 | 41.71398 | -86.82482 | 11785 ft | 319 kts | 359° |
| 2026-05-06 00:53 | 41.73619 | -86.82146 | 11695 ft | 320 kts | 1° |
| 2026-05-06 00:54 | 41.75083 | -86.81918 | 11633 ft | 320 kts | 0° |
| 2026-05-06 00:54 | 41.77288 | -86.81572 | 11542 ft | 320 kts | 0° |
| 2026-05-06 00:54 | 41.79512 | -86.81305 | 11449 ft | 316 kts | 354° |
| 2026-05-06 00:54 | 41.81687 | -86.81492 | 11366 ft | 312 kts | 346° |
| 2026-05-06 00:55 | 41.83820 | -86.81952 | 11282 ft | 309 kts | 342° |
| 2026-05-06 00:55 | 41.85859 | -86.82748 | 11190 ft | 300 kts | 329° |
| 2026-05-06 00:55 | 41.87631 | -86.84150 | 11115 ft | 293 kts | 317° |
| 2026-05-06 00:55 | 41.89183 | -86.85896 | 11031 ft | 290 kts | 313° |
| 2026-05-06 00:56 | 41.90638 | -86.87753 | 10889 ft | 285 kts | 302° |
| 2026-05-06 00:56 | 41.91515 | -86.90057 | 10648 ft | 274 kts | 282° |
| 2026-05-06 00:56 | 41.91873 | -86.92559 | 10403 ft | 272 kts | 276° |
| 2026-05-06 00:56 | 41.92183 | -86.95064 | 10168 ft | 271 kts | 276° |
| 2026-05-06 00:57 | 41.92485 | -86.97545 | 9958 ft | 266 kts | 276° |
| 2026-05-06 00:57 | 41.92782 | -86.99937 | 9838 ft | 260 kts | 276° |
| 2026-05-06 00:57 | 41.93084 | -87.02351 | 9713 ft | 258 kts | 276° |
| 2026-05-06 00:57 | 41.93377 | -87.04697 | 9581 ft | 258 kts | 276° |
| 2026-05-06 00:58 | 41.93675 | -87.07075 | 9445 ft | 258 kts | 276° |
| 2026-05-06 00:58 | 41.93969 | -87.09444 | 9316 ft | 258 kts | 276° |
| 2026-05-06 00:58 | 41.94261 | -87.11820 | 9184 ft | 258 kts | 277° |
| 2026-05-06 00:58 | 41.94552 | -87.14194 | 9059 ft | 258 kts | 277° |
| 2026-05-06 00:59 | 41.94843 | -87.16571 | 9044 ft | 258 kts | 277° |
| 2026-05-06 00:59 | 41.95136 | -87.18949 | 9047 ft | 258 kts | 277° |
| 2026-05-06 00:59 | 41.95428 | -87.21327 | 9043 ft | 258 kts | 277° |
| 2026-05-06 00:59 | 41.95718 | -87.23705 | 9046 ft | 257 kts | 277° |
| 2026-05-06 01:00 | 41.96000 | -87.26010 | 9042 ft | 243 kts | 277° |
| 2026-05-06 01:00 | 41.96282 | -87.28313 | 9050 ft | 255 kts | 277° |
| 2026-05-06 01:00 | 41.96511 | -87.30683 | 9041 ft | 256 kts | 270° |
| 2026-05-06 01:00 | 41.96517 | -87.33081 | 9041 ft | 256 kts | 269° |
| 2026-05-06 01:01 | 41.96523 | -87.35445 | 9038 ft | 256 kts | 269° |
| 2026-05-06 01:01 | 41.96533 | -87.37838 | 9036 ft | 257 kts | 269° |
| 2026-05-06 01:01 | 41.96541 | -87.40243 | 8957 ft | 258 kts | 269° |
| 2026-05-06 01:01 | 41.96548 | -87.42692 | 8224 ft | 265 kts | 270° |
| 2026-05-06 01:02 | 41.96554 | -87.45173 | 7611 ft | 264 kts | 270° |
| 2026-05-06 01:02 | 41.96550 | -87.47651 | 6964 ft | 267 kts | 271° |
| 2026-05-06 01:02 | 41.96552 | -87.50128 | 6469 ft | 262 kts | 271° |
| 2026-05-06 01:02 | 41.96557 | -87.52574 | 6091 ft | 260 kts | 272° |
| 2026-05-06 01:03 | 41.96562 | -87.54985 | 5725 ft | 257 kts | 272° |
| 2026-05-06 01:03 | 41.96566 | -87.57344 | 5369 ft | 245 kts | 272° |
| 2026-05-06 01:03 | 41.96569 | -87.59558 | 5050 ft | 230 kts | 272° |
| 2026-05-06 01:03 | 41.96572 | -87.61657 | 4737 ft | 218 kts | 272° |
| 2026-05-06 01:04 | 41.96574 | -87.63643 | 4440 ft | 208 kts | 272° |
| 2026-05-06 01:04 | 41.96576 | -87.65533 | 4172 ft | 196 kts | 272° |
| 2026-05-06 01:04 | 41.96578 | -87.67313 | 3889 ft | 185 kts | 272° |
| 2026-05-06 01:04 | 41.96579 | -87.68986 | 3647 ft | 171 kts | 272° |
| 2026-05-06 01:05 | 41.96579 | -87.70459 | 3430 ft | 149 kts | 273° |
| 2026-05-06 01:05 | 41.96580 | -87.71781 | 3239 ft | 136 kts | 273° |
| 2026-05-06 01:05 | 41.96581 | -87.73046 | 3054 ft | 132 kts | 273° |
| 2026-05-06 01:05 | 41.96581 | -87.74259 | 2879 ft | 130 kts | 272° |
| 2026-05-06 01:06 | 41.96582 | -87.75474 | 2698 ft | 130 kts | 272° |
| 2026-05-06 01:06 | 41.96582 | -87.76677 | 2528 ft | 129 kts | 273° |
| 2026-05-06 01:06 | 41.96582 | -87.77885 | 2349 ft | 129 kts | 273° |
| 2026-05-06 01:06 | 41.96582 | -87.79088 | 2173 ft | 129 kts | 272° |
| 2026-05-06 01:07 | 41.96582 | -87.80296 | 1993 ft | 129 kts | 273° |
| 2026-05-06 01:07 | 41.96581 | -87.81495 | 1822 ft | 127 kts | 273° |
| 2026-05-06 01:07 | 41.96581 | -87.82688 | 1648 ft | 127 kts | 273° |
| 2026-05-06 01:07 | 41.96580 | -87.83877 | 1468 ft | 128 kts | 271° |
| 2026-05-06 01:08 | 41.96579 | -87.85067 | 1298 ft | 129 kts | 272° |
| 2026-05-06 01:08 | 41.96578 | -87.86255 | 1127 ft | 127 kts | 272° |
| 2026-05-06 01:08 | 41.96574 | -87.87446 | 976 ft | 127 kts | 272° |
| 2026-05-06 01:08 | 41.96574 | -87.88648 | 816 ft | 128 kts | 273° |
| 2026-05-06 01:09 | 41.96576 | -87.89822 | 662 ft | 116 kts | 274° |
| 2026-05-06 01:09 | 41.96574 | -87.90712 | 668 ft | 71 kts | 268° |
| 2026-05-06 01:09 | 41.96579 | -87.91181 | 669 ft | 37 kts | 276° |
| 2026-05-06 01:09 | 41.96647 | -87.91460 | 670 ft | 23 kts | 301° |
| 2026-05-06 01:10 | 41.96693 | -87.91498 | 672 ft | 0 kts | 351° |
| 2026-05-06 01:10 | 41.96696 | -87.91498 | 672 ft | 2 kts | 353° |
| 2026-05-06 01:10 | 41.96736 | -87.91451 | 674 ft | 12 kts | 76° |
| 2026-05-06 01:10 | 41.96740 | -87.91343 | 675 ft | 12 kts | 89° |
| 2026-05-06 01:11 | 41.96740 | -87.91216 | 672 ft | 17 kts | 89° |
| 2026-05-06 01:11 | 41.96739 | -87.91045 | 669 ft | 19 kts | 89° |
| 2026-05-06 01:11 | 41.96740 | -87.90866 | 669 ft | 19 kts | 89° |
| 2026-05-06 01:11 | 41.96740 | -87.90680 | 666 ft | 21 kts | 90° |
| 2026-05-06 01:12 | 41.96739 | -87.90480 | 666 ft | 21 kts | 90° |
| 2026-05-06 01:12 | 41.96741 | -87.90288 | 667 ft | 20 kts | 90° |
| 2026-05-06 01:12 | 41.96742 | -87.90093 | 665 ft | 21 kts | 89° |
| 2026-05-06 01:12 | 41.96742 | -87.89896 | 667 ft | 21 kts | 92° |
| 2026-05-06 01:13 | 41.96742 | -87.89702 | 665 ft | 21 kts | 90° |
| 2026-05-06 01:13 | 41.96743 | -87.89500 | 661 ft | 20 kts | 86° |
| 2026-05-06 01:13 | 41.96812 | -87.89435 | 667 ft | 11 kts | 358° |
| 2026-05-06 01:13 | 41.96888 | -87.89437 | 664 ft | 11 kts | 0° |
| 2026-05-06 01:14 | 41.97068 | -87.89437 | 667 ft | 13 kts | 359° |
| 2026-05-06 01:14 | 41.97162 | -87.89437 | 667 ft | 14 kts | 1° |
| 2026-05-06 01:14 | 41.97195 | -87.89515 | 666 ft | 12 kts | 271° |
| 2026-05-06 01:15 | 41.97248 | -87.89589 | 665 ft | 12 kts | 345° |
| 2026-05-06 01:15 | 41.97304 | -87.89655 | 664 ft | 13 kts | 258° |
| 2026-05-06 01:15 | 41.97284 | -87.89765 | 664 ft | 12 kts | 305° |
| 2026-05-06 01:15 | 41.97360 | -87.89837 | 662 ft | 14 kts | 322° |
| 2026-05-06 01:16 | 41.97419 | -87.89848 | 662 ft | 9 kts | 36° |
| 2026-05-06 01:16 | 41.97444 | -87.89826 | 661 ft | 1 kts | 33° |
| 2026-05-06 01:16 | 41.97445 | -87.89825 | 661 ft | 0 kts | 33° |